首页
METAR-TAF:

METAR-TAF

机场 :

海參崴國際機場

海參崴, 俄罗斯

纬度: 43-07N, 经度: 131-56E, 海拔: 184米

当前天气观测

该预报发布于21分钟前的22:00 UTC
风速2节,风向
温度 -10°C
湿度 61%
气压 1019 hPa
能見度: 6000

METAR: UHWW 152200Z 01001MPS 6000 NSC M10/M16 Q1019 R25L/0///70 NOSIG RMK QFE763

时间: 08:21 (22:21 UTC)

预报

该预报发布于2小时和21分钟前的20:00 UTC
预报有效从15日的 21点(UTC)到 16日的 21点(UTC)
风速6节,风向北转西北
能见度10公里或以上
短暂存在
从 15日的 21点(UTC)到 16日的 09点(UTC)
风速16节,风向北转西北,有时为25节阵风
能見度: 5000

TAF: UHWW 152000Z 1521/1621 34003MPS 9999 NSC TEMPO 1521/1609 34008G13MPS 5000 HZ

超过4000个机场的气象观测和天气预报(METAR&TAF报告)。

可查询的气象台以黄色和红色小点在地图上表示。

将鼠标移到小点上方,可查看气象台名称。

然后点击查看天气观测和预报。

如需切换地图:点击带黑十字的绿色按钮放大地图;点击带横线的绿色按钮缩小地图;或者点击绿色箭头查看邻近地区的地图。


METAR-TAF: